Flight Track Log - Related Links

Times and Time Zones

All times are in EDT time to prevent confusion due to time zone crossing. See the N559LC flight status page for this flight to view local times or setup timezone preferences in your user account.

Time Position Orientation Groundspeed Altitude Reporting Facility
EDT Latitude Longitude Course Direction KTS MPH feet Rate Location/Type
Fri 05:01:23 PM 42.2700 -83.3000 90° East 201 231 4,200  Level Cleveland Center
Fri 05:02:04 PM 42.2978 -83.2628 45° Northeast 216 249 6,400 3,636 Climbing Cleveland Center
Fri 05:02:29 PM 42.3031 -83.2228 80° East 238 274 8,200 2,806 Climbing Cleveland Center
Fri 05:03:06 PM 42.3078 -83.1875 80° East 236 272 9,300 1,839 Climbing Cleveland Center
Fri 05:03:31 PM 42.3122 -83.1308 84° East 280 322 10,100 1,742 Climbing Cleveland Center
Fri 05:04:08 PM 42.3200 -83.0481 83° East 332 382 11,100 2,303 Climbing Cleveland Center
Fri 05:05:10 PM 42.3319 -82.9031 84° East 383 441 13,900 2,829 Climbing Cleveland Center
Fri 05:06:00 PM 42.3667 -82.4071 90° East  Level FlightAware Approximate
Fri 05:06:11 PM 42.3453 -82.7497 83° East 407 468 16,900  Level Cleveland Center
Fri 05:07:13 PM 42.3589 -82.5831 84° East 443 510 18,700 1,887 Climbing Cleveland Center
Fri 05:08:15 PM 42.3692 -82.4081 85° East 466 536 20,800 2,081 Climbing Cleveland Center
Fri 05:09:17 PM 42.3603 -82.2269 94° East 478 550 23,000 2,274 Climbing Cleveland Center
Fri 05:10:19 PM 42.3503 -82.0056 93° East 491 565 25,500 2,129 Climbing Cleveland Center
Fri 05:11:21 PM 42.3417 -81.8150 93° East 497 572 27,400 1,694 Climbing Cleveland Center
Fri 05:12:23 PM 42.3322 -81.6169 94° East 514 592 29,000 774 Climbing Cleveland Center
Fri 05:13:25 PM 42.3228 -81.4178 94° East 523 602 29,000  Level Cleveland Center
Fri 05:14:27 PM 42.3131 -81.2200 94° East 523 602 29,000 439 Level Cleveland Center
Fri 05:15:28 PM 42.3033 -81.0194 94° East 523 602 29,900 1,415 Climbing Cleveland Center
Fri 05:16:30 PM 42.2919 -80.8189 94° East 528 608 31,900 1,839 Climbing Cleveland Center
Fri 05:17:32 PM 42.2817 -80.6208 94° East 526 605 33,700 1,306 Climbing Cleveland Center
Fri 05:18:34 PM 42.2703 -80.4181 94° East 535 616 34,600 1,065 Climbing Cleveland Center
Fri 05:19:36 PM 42.2561 -80.1719 94° East 558 642 35,900 1,210 Climbing Cleveland Center
Fri 05:20:38 PM 42.2433 -79.9606 95° East 558 642 37,100 968 Climbing Cleveland Center
Fri 05:21:40 PM 42.2294 -79.7528 95° East 558 642 37,900 919 Climbing Cleveland Center
Fri 05:22:42 PM 42.2161 -79.5403 95° East 568 654 39,000 532 Climbing Cleveland Center
Fri 05:23:44 PM 42.2178 -79.3267 89° East 570 656 39,000  Level Cleveland Center
Fri 05:24:46 PM 42.2453 -79.1067 80° East 590 679 39,000  Level Cleveland Center
Fri 05:25:48 PM 42.2722 -78.8756 81° East 588 677 39,000  Level Cleveland Center
Fri 05:26:50 PM 42.2983 -78.6597 81° East 587 676 39,000  Level Cleveland Center
Fri 05:27:53 PM 42.3281 -78.3964 81° East 592 681 39,000  Level Cleveland Center
Fri 05:28:55 PM 42.3517 -78.1767 82° East 592 681 39,000 -48 Level Cleveland Center
Fri 05:29:57 PM 42.3753 -77.9628 81° East 586 674 38,900 -823 Descending Cleveland Center
Fri 05:30:59 PM 42.3983 -77.7492 82° East 583 671 37,300 -1,839 Descending Cleveland Center
Fri 05:32:01 PM 42.4261 -77.4850 82° East 602 693 35,100 -1,113 Descending Cleveland Center
Fri 05:33:03 PM 42.4481 -77.2692 82° East 593 682 35,000 -48 Descending Cleveland Center
Fri 05:34:05 PM 42.4697 -77.0542 82° East 586 674 35,000  Level Cleveland Center
Fri 05:35:07 PM 42.4911 -76.8389 82° East 583 671 35,000  Level Cleveland Center
Fri 05:36:09 PM 42.5122 -76.6208 82° East 584 672 35,000  Level Cleveland Center
Fri 05:36:46 PM 42.5253 -76.4883 82° East 585 673 35,000  Level Boston Center
Fri 05:37:47 PM 42.5497 -76.2222 83° East 592 681 35,000  Level Boston Center
Fri 05:38:49 PM 42.5681 -75.9928 84° East 594 684 35,000  Level Boston Center
Fri 05:39:50 PM 42.5714 -75.7694 89° East 597 687 35,000  Level Boston Center
Fri 05:40:52 PM 42.5733 -75.5486 89° East 595 685 35,000  Level Boston Center
Fri 05:41:53 PM 42.5750 -75.3272 89° East 595 685 35,000  Level Boston Center
Fri 05:42:55 PM 42.5761 -75.1031 90° East 595 685 35,000  Level Boston Center
Fri 05:43:56 PM 42.5761 -74.8836 90° East 593 682 35,000  Level Boston Center
Fri 05:44:58 PM 42.5772 -74.6644 90° East 589 678 35,000  Level Boston Center
Fri 05:45:59 PM 42.5775 -74.4231 90° East 588 677 35,000  Level Boston Center
Fri 05:47:01 PM 42.5767 -74.2011 90° East 588 677 35,000  Level Boston Center
Fri 05:48:02 PM 42.5764 -73.9817 90° East 588 677 35,000  Level Boston Center
Fri 05:49:04 PM 42.5733 -73.7619 91° East 586 674 35,000  Level Boston Center
Fri 05:50:05 PM 42.5711 -73.4964 91° East 586 674 35,000 -585 Level Boston Center
Fri 05:51:07 PM 42.5686 -73.2778 91° East 585 673 33,800 -2,000 Descending Boston Center
Fri 05:52:08 PM 42.5661 -73.0528 91° East 585 673 30,900 -2,683 Descending Boston Center
Fri 05:53:10 PM 42.5625 -72.8564 91° East 550 633 28,300 -2,585 Descending Boston Center
Fri 05:54:11 PM 42.5589 -72.6533 91° East 537 618 25,600 -2,488 Descending Boston Center
Fri 05:55:13 PM 42.5553 -72.4653 91° East 509 586 23,200 -2,468 Descending Boston Center
Fri 05:56:15 PM 42.5514 -72.2675 91° East 478 550 20,500 -2,439 Descending Boston Center
Fri 05:57:16 PM 42.5467 -72.0858 92° East 455 524 18,200 -2,244 Descending Boston Center
Fri 05:58:18 PM 42.5339 -71.9183 96° East 423 487 15,900 -1,935 Descending Boston Center
Fri 05:59:20 PM 42.5203 -71.7856 98° East 365 420 14,200 -1,659 Descending Boston Center
Fri 06:00:21 PM 42.5097 -71.6583 96° East 350 403 12,500 -1,610 Descending Boston Center
Fri 06:01:23 PM 42.4964 -71.5233 98° East 339 390 10,900 -1,258 Descending Boston Center
Fri 06:02:25 PM 42.4856 -71.4033 97° East 324 373 9,900 -927 Descending Boston Center
Fri 06:03:26 PM 42.4736 -71.2806 97° East 307 353 9,000 -878 Descending Boston Center
Fri 06:04:28 PM 42.4636 -71.1703 97° East 298 343 8,100 -871 Descending Boston Center
Fri 06:05:30 PM 42.4261 -71.0786 119° Southeast 264 304 7,200 -927 Descending Boston Center
Fri 06:06:31 PM 42.3756 -71.0156 137° Southeast 252 290 6,200 -585 Descending Boston Center
Fri 06:07:33 PM 42.3236 -70.9650 144° Southeast 236 272 6,000 -194 Descending Boston Center
Fri 06:08:35 PM 42.2569 -70.9583 176° South 228 262 5,800 -683 Descending Boston Center
Fri 06:09:36 PM 42.1972 -70.9847 198° South 227 261 4,600 -1,268 Descending Boston Center
Fri 06:10:38 PM 42.1636 -71.0339 227° Southwest 219 252 3,200 -968 Descending Boston Center
Fri 06:11:40 PM 42.2047 -71.0761 323° Northwest 198 228 2,600 -585 Descending Boston Center
Fri 06:12:41 PM 42.2533 -71.0583 15° North 185 213 2,000 -780 Descending Boston Center
Fri 06:13:43 PM 42.3017 -71.0375 18° North 171 197 1,000 -780 Descending Boston Center
Fri 06:14:44 PM 42.3400 -71.0175 21° North 155 178 400 -590 Descending Boston Center
Fri 06:16:00 PM 42.3500 -71.0000 North  Level FlightAware Approximate

Login

Don't have an account? Register now (free) for customized features, flight alerts, and more!